createdAt,value
2023-06-22T00:00:18.519Z,19.58
2023-06-22T00:03:22.882Z,20.80
2023-06-22T00:06:25.760Z,23.65
2023-06-22T00:09:28.632Z,24.52
2023-06-22T00:12:31.631Z,21.50
2023-06-22T00:15:35.194Z,22.88
2023-06-22T00:18:38.011Z,22.23
2023-06-22T00:21:40.739Z,25.20
2023-06-22T00:24:43.732Z,24.48
2023-06-22T00:27:46.568Z,24.03
2023-06-22T00:30:50.837Z,23.40
2023-06-22T00:33:55.021Z,23.23
2023-06-22T00:36:57.760Z,22.20
2023-06-22T00:40:00.516Z,26.52
2023-06-22T00:43:04.009Z,21.83
2023-06-22T00:46:07.017Z,22.98
2023-06-22T00:49:09.992Z,26.27
2023-06-22T00:52:15.259Z,21.02
2023-06-22T00:55:19.175Z,24.30
2023-06-22T00:58:23.203Z,23.80
2023-06-22T01:01:26.154Z,24.52
2023-06-22T01:04:36.856Z,22.70
2023-06-22T01:07:49.759Z,30.33
2023-06-22T01:11:06.941Z,30.25
2023-06-22T01:14:23.943Z,26.90
2023-06-22T01:17:28.843Z,27.48
2023-06-22T01:20:33.417Z,27.30
2023-06-22T01:24:24.972Z,30.85
2023-06-22T01:27:38.189Z,27.65
2023-06-22T01:30:41.843Z,28.80
2023-06-22T01:33:48.251Z,29.15
2023-06-22T01:36:52.990Z,30.52
2023-06-22T01:39:57.050Z,28.83
2023-06-22T01:43:02.471Z,27.88
2023-06-22T01:46:05.401Z,25.87
2023-06-22T01:49:09.276Z,31.58
2023-06-22T01:52:12.922Z,26.48
2023-06-22T01:55:15.724Z,31.05
2023-06-22T01:58:21.472Z,30.38
2023-06-22T02:01:32.975Z,28.93
2023-06-22T02:05:08.211Z,26.48
2023-06-22T02:08:17.811Z,26.48
2023-06-22T02:11:22.806Z,23.17
2023-06-22T02:14:26.953Z,24.30
2023-06-22T02:17:34.273Z,23.13
2023-06-22T02:20:38.902Z,23.95
2023-06-22T02:23:41.616Z,26.13
2023-06-22T02:26:46.737Z,23.20
2023-06-22T02:29:49.494Z,21.13
2023-06-22T02:33:00.392Z,23.10
2023-06-22T02:36:06.469Z,22.40
2023-06-22T02:39:09.376Z,24.75
2023-06-22T02:42:13.478Z,22.05
2023-06-22T02:45:16.349Z,22.10
2023-06-22T02:48:20.047Z,25.60
2023-06-22T02:51:22.799Z,23.08
2023-06-22T02:54:25.557Z,27.20
2023-06-22T02:57:31.268Z,24.85
2023-06-22T03:00:34.472Z,28.50
2023-06-22T03:03:37.262Z,27.53
2023-06-22T03:06:42.068Z,22.92
2023-06-22T03:09:45.123Z,25.27
2023-06-22T03:12:48.509Z,28.65
2023-06-22T03:15:51.364Z,23.17
2023-06-22T03:18:54.780Z,25.93
2023-06-22T03:21:57.548Z,24.63
2023-06-22T03:25:02.108Z,28.23
2023-06-22T03:28:05.121Z,27.45
2023-06-22T03:31:08.141Z,25.90
2023-06-22T03:34:12.374Z,30.43
2023-06-22T03:37:15.956Z,28.00
2023-06-22T03:40:18.950Z,28.48
2023-06-22T03:43:22.048Z,30.20
2023-06-22T03:46:25.011Z,26.23
2023-06-22T03:49:28.553Z,24.20
2023-06-22T03:52:31.667Z,24.40
2023-06-22T03:55:35.516Z,25.98
2023-06-22T03:58:44.205Z,26.80
2023-06-22T04:01:47.821Z,28.80
2023-06-22T04:04:50.590Z,25.77
2023-06-22T04:07:53.359Z,26.55
2023-06-22T04:10:56.083Z,28.73
2023-06-22T04:13:58.857Z,32.38
2023-06-22T04:17:01.617Z,31.67
2023-06-22T04:20:05.328Z,29.47
2023-06-22T04:23:08.168Z,25.48
2023-06-22T04:26:10.833Z,25.88
2023-06-22T04:29:14.263Z,27.30
2023-06-22T04:32:17.599Z,25.98
2023-06-22T04:35:20.383Z,28.13
2023-06-22T04:38:23.170Z,25.17
2023-06-22T04:41:25.865Z,28.73
2023-06-22T04:44:29.035Z,23.70
2023-06-22T04:47:31.838Z,27.35
2023-06-22T04:50:34.627Z,26.27
2023-06-22T04:53:37.320Z,25.88
2023-06-22T04:56:42.135Z,26.45
2023-06-22T04:59:45.488Z,25.23
2023-06-22T05:02:48.647Z,25.30
2023-06-22T05:05:51.481Z,28.57
2023-06-22T05:09:01.241Z,21.40
2023-06-22T05:12:07.736Z,20.35
2023-06-22T05:15:11.880Z,18.65
2023-06-22T05:18:14.772Z,26.20
2023-06-22T05:21:17.636Z,22.13
2023-06-22T05:24:20.461Z,18.33
2023-06-22T05:27:23.383Z,20.85
2023-06-22T05:30:26.120Z,17.55
2023-06-22T05:33:28.963Z,18.20
2023-06-22T05:36:31.715Z,18.47
2023-06-22T05:39:34.434Z,17.77
2023-06-22T05:42:37.184Z,18.73
2023-06-22T05:45:39.976Z,21.67
2023-06-22T05:48:42.748Z,26.42
2023-06-22T05:51:45.628Z,26.87
2023-06-22T05:54:50.941Z,18.67
2023-06-22T05:57:53.844Z,19.67
2023-06-22T06:00:56.763Z,18.88
2023-06-22T06:04:01.003Z,17.10
2023-06-22T06:07:15.820Z,18.87
2023-06-22T06:10:22.040Z,19.25
2023-06-22T06:13:29.346Z,19.10
2023-06-22T06:16:32.214Z,19.98
2023-06-22T06:19:35.250Z,22.17
2023-06-22T06:22:37.956Z,18.53
2023-06-22T06:26:30.884Z,20.65
2023-06-22T06:29:34.004Z,20.65
2023-06-22T06:32:36.741Z,19.92
2023-06-22T06:35:39.723Z,20.58
2023-06-22T06:38:42.426Z,18.90
2023-06-22T06:41:45.309Z,18.88
2023-06-22T06:44:51.835Z,19.13
2023-06-22T06:48:10.670Z,17.65
2023-06-22T06:51:27.890Z,20.38
2023-06-22T06:54:31.113Z,18.97
2023-06-22T06:57:35.146Z,17.63
2023-06-22T07:00:38.212Z,17.55
2023-06-22T07:03:41.010Z,20.15
2023-06-22T07:06:47.158Z,23.20
2023-06-22T07:09:49.942Z,16.73
2023-06-22T07:12:55.945Z,15.63
2023-06-22T07:16:02.871Z,17.45
2023-06-22T07:19:06.809Z,18.13
2023-06-22T07:22:13.358Z,17.58
2023-06-22T07:25:16.652Z,19.93
2023-06-22T07:28:20.802Z,15.68
2023-06-22T07:31:28.101Z,17.30
2023-06-22T07:34:30.939Z,15.40
2023-06-22T07:37:35.267Z,13.52
2023-06-22T07:40:38.022Z,16.67
2023-06-22T07:43:40.770Z,19.60
2023-06-22T07:46:43.742Z,16.73
2023-06-22T07:49:47.753Z,14.63
2023-06-22T07:52:50.854Z,14.07
2023-06-22T07:55:53.691Z,15.27
2023-06-22T07:58:59.398Z,17.42
2023-06-22T08:02:08.509Z,15.40
2023-06-22T08:05:20.871Z,19.10
2023-06-22T08:08:25.366Z,14.85
2023-06-22T08:11:28.521Z,13.53
2023-06-22T08:14:31.655Z,16.48
2023-06-22T08:17:35.019Z,15.05
2023-06-22T08:20:37.935Z,13.73
2023-06-22T08:23:40.814Z,14.07
2023-06-22T08:26:43.660Z,19.23
2023-06-22T08:29:50.899Z,18.30
2023-06-22T08:32:55.069Z,18.85
2023-06-22T08:35:59.720Z,15.05
2023-06-22T08:39:04.472Z,17.35
2023-06-22T08:42:07.617Z,15.37
2023-06-22T08:45:11.220Z,13.48
2023-06-22T08:48:14.068Z,14.57
2023-06-22T08:51:19.971Z,14.05
2023-06-22T08:54:22.807Z,16.85
2023-06-22T08:57:25.550Z,19.27
2023-06-22T09:00:30.541Z,14.93
2023-06-22T09:03:34.324Z,14.40
2023-06-22T09:06:39.301Z,20.63
2023-06-22T09:09:42.163Z,16.48
2023-06-22T09:12:45.055Z,13.23
2023-06-22T09:15:47.944Z,12.07
2023-06-22T09:18:51.013Z,13.32
2023-06-22T09:21:53.893Z,19.10
2023-06-22T09:24:57.331Z,17.67
2023-06-22T09:28:00.178Z,14.93
2023-06-22T09:31:05.828Z,16.65
2023-06-22T09:34:08.641Z,13.85
2023-06-22T09:37:11.481Z,13.40
2023-06-22T09:40:17.029Z,13.27
2023-06-22T09:43:19.912Z,12.17
2023-06-22T09:46:26.621Z,12.00
2023-06-22T09:49:47.307Z,14.32
2023-06-22T09:52:56.114Z,16.33
2023-06-22T09:55:59.562Z,11.73
2023-06-22T09:59:17.109Z,17.13
2023-06-22T10:02:21.194Z,14.13
2023-06-22T10:05:24.589Z,13.55
2023-06-22T10:08:27.702Z,13.10
2023-06-22T10:11:32.077Z,10.43
2023-06-22T10:14:34.932Z,13.30
2023-06-22T10:17:37.708Z,12.35
2023-06-22T10:20:40.740Z,13.23
2023-06-22T10:23:43.525Z,14.20
2023-06-22T10:26:46.303Z,10.68
2023-06-22T10:29:50.088Z,12.50
2023-06-22T10:32:53.302Z,19.08
2023-06-22T10:36:08.526Z,13.73
2023-06-22T10:39:14.002Z,13.02
2023-06-22T10:42:16.762Z,12.25
2023-06-22T10:45:20.247Z,14.33
2023-06-22T10:48:23.001Z,11.48
2023-06-22T10:51:26.884Z,12.60
2023-06-22T10:54:30.369Z,14.55
2023-06-22T10:57:33.216Z,15.68
2023-06-22T11:00:35.943Z,13.73
2023-06-22T11:03:38.855Z,14.82
2023-06-22T11:06:41.780Z,15.25
2023-06-22T11:09:45.065Z,14.73
2023-06-22T11:12:47.961Z,16.58
2023-06-22T11:15:50.868Z,12.00
2023-06-22T11:18:53.632Z,15.25
2023-06-22T11:21:56.362Z,12.05
2023-06-22T11:24:59.100Z,11.55
2023-06-22T11:28:05.486Z,15.82
2023-06-22T11:31:24.398Z,17.13
2023-06-22T11:34:29.255Z,16.17
2023-06-22T11:37:32.519Z,16.95
2023-06-22T11:40:38.327Z,12.95
2023-06-22T11:43:41.144Z,14.85
2023-06-22T11:46:43.850Z,14.67
2023-06-22T11:49:47.145Z,20.63
2023-06-22T11:52:49.915Z,16.85
2023-06-22T11:55:53.868Z,13.95
2023-06-22T11:58:56.633Z,14.63
2023-06-22T12:01:59.843Z,11.67
2023-06-22T12:05:06.226Z,12.70
2023-06-22T12:08:09.103Z,13.00
2023-06-22T12:11:11.797Z,16.38
2023-06-22T12:14:14.638Z,15.35
2023-06-22T12:17:17.475Z,11.50
2023-06-22T12:20:20.660Z,12.02
2023-06-22T12:23:23.378Z,15.75
2023-06-22T12:26:26.216Z,16.77
2023-06-22T12:29:29.021Z,13.93
2023-06-22T12:32:31.856Z,12.97
2023-06-22T12:35:34.554Z,13.18
2023-06-22T12:38:37.334Z,17.42
2023-06-22T12:41:40.163Z,13.80
2023-06-22T12:44:43.504Z,14.80
2023-06-22T12:47:46.345Z,15.60
2023-06-22T12:50:49.282Z,16.42
2023-06-22T12:53:52.091Z,13.20
2023-06-22T12:56:56.243Z,13.95
2023-06-22T13:00:01.680Z,12.13
2023-06-22T13:03:04.573Z,11.77
2023-06-22T13:06:07.315Z,13.90
2023-06-22T13:12:17.167Z,12.63
2023-06-22T13:15:19.889Z,15.20
2023-06-22T13:18:22.689Z,15.57
2023-06-22T13:21:25.499Z,16.33
2023-06-22T13:24:28.243Z,16.98
2023-06-22T13:27:30.954Z,15.45
2023-06-22T13:30:33.885Z,16.00
2023-06-22T13:33:36.737Z,22.43
2023-06-22T13:36:39.574Z,12.52
2023-06-22T13:39:43.143Z,12.77
2023-06-22T13:42:45.902Z,13.85
2023-06-22T13:45:48.597Z,14.02
2023-06-22T13:48:51.321Z,15.77
2023-06-22T13:51:54.074Z,14.75
2023-06-22T13:54:56.998Z,20.17
2023-06-22T13:57:59.862Z,13.73
2023-06-22T14:01:02.644Z,12.27
2023-06-22T14:04:05.633Z,19.87
2023-06-22T14:07:08.667Z,15.95
2023-06-22T14:10:11.416Z,15.20
2023-06-22T14:13:14.116Z,17.20
2023-06-22T14:16:16.877Z,15.23
2023-06-22T14:19:19.831Z,15.43
2023-06-22T14:22:23.598Z,13.63
2023-06-22T14:25:26.482Z,11.65
2023-06-22T14:28:29.199Z,15.57
2023-06-22T14:31:31.963Z,13.23
2023-06-22T14:34:37.192Z,15.53
2023-06-22T14:37:39.987Z,13.10
2023-06-22T14:40:53.871Z,13.07
2023-06-22T14:44:05.456Z,14.48
2023-06-22T14:47:08.853Z,11.10
2023-06-22T14:50:11.739Z,17.40
2023-06-22T14:53:15.465Z,13.23
2023-06-22T14:56:18.263Z,17.75
2023-06-22T14:59:20.972Z,16.08
2023-06-22T15:02:24.438Z,13.23
2023-06-22T15:05:27.368Z,14.53
2023-06-22T15:08:30.601Z,11.35
2023-06-22T15:11:34.849Z,12.73
2023-06-22T15:14:37.779Z,12.10
2023-06-22T15:17:40.554Z,15.85
2023-06-22T15:20:46.665Z,16.20
2023-06-22T15:23:49.459Z,14.95
2023-06-22T15:26:52.316Z,15.57
2023-06-22T15:29:55.088Z,12.93
2023-06-22T15:33:01.322Z,17.55
2023-06-22T15:36:05.783Z,16.13
2023-06-22T15:39:08.726Z,15.65
2023-06-22T15:42:11.507Z,16.02
2023-06-22T15:45:14.715Z,14.88
2023-06-22T15:48:17.490Z,15.57
2023-06-22T15:51:20.207Z,15.73
2023-06-22T15:54:22.963Z,13.07
2023-06-22T15:57:27.706Z,19.52
2023-06-22T16:00:30.818Z,15.55
2023-06-22T16:03:33.847Z,18.05
2023-06-22T16:06:37.187Z,19.00
2023-06-22T16:09:40.731Z,15.23
2023-06-22T16:12:45.264Z,14.43
2023-06-22T16:15:47.925Z,17.40
2023-06-22T16:18:51.132Z,13.23
2023-06-22T16:21:53.904Z,18.10
2023-06-22T16:24:57.116Z,16.05
2023-06-22T16:27:59.973Z,18.30
2023-06-22T16:31:02.792Z,14.43
2023-06-22T16:34:05.829Z,18.25
2023-06-22T16:37:08.579Z,14.80
2023-06-22T16:40:11.573Z,17.48
2023-06-22T16:43:14.326Z,18.58
2023-06-22T16:46:17.160Z,12.73
2023-06-22T16:49:19.971Z,18.42
2023-06-22T16:52:22.740Z,19.17
2023-06-22T16:55:25.834Z,12.35
2023-06-22T16:58:30.009Z,15.45
2023-06-22T17:01:34.649Z,13.05
2023-06-22T17:04:38.458Z,19.58
2023-06-22T17:07:48.764Z,13.77
2023-06-22T17:10:51.905Z,12.63
2023-06-22T17:13:55.233Z,14.95
2023-06-22T17:16:59.137Z,12.52
2023-06-22T17:20:02.114Z,11.70
2023-06-22T17:23:04.979Z,13.10
2023-06-22T17:26:08.484Z,14.75
2023-06-22T17:29:11.292Z,17.75
2023-06-22T17:32:14.630Z,16.90
2023-06-22T17:35:17.665Z,16.20
2023-06-22T17:38:23.719Z,18.87
2023-06-22T17:41:34.082Z,15.68
2023-06-22T17:44:37.372Z,16.52
2023-06-22T17:47:40.127Z,12.63
2023-06-22T17:50:43.649Z,15.38
2023-06-22T17:53:51.113Z,17.73
2023-06-22T17:56:53.981Z,13.95
2023-06-22T17:59:56.751Z,17.38
2023-06-22T18:02:59.978Z,15.98
2023-06-22T18:06:02.827Z,16.33
2023-06-22T18:09:07.142Z,14.37
2023-06-22T18:12:12.341Z,13.05
2023-06-22T18:15:15.200Z,21.25
2023-06-22T18:18:18.558Z,20.95
2023-06-22T18:21:22.631Z,17.25
2023-06-22T18:24:25.855Z,13.10
2023-06-22T18:27:29.508Z,14.77
2023-06-22T18:30:32.994Z,18.27
2023-06-22T18:33:35.799Z,17.77
2023-06-22T18:36:44.024Z,15.80
2023-06-22T18:39:51.237Z,18.53
2023-06-22T18:43:00.948Z,17.25
2023-06-22T18:46:35.996Z,13.85
2023-06-22T18:49:42.249Z,16.15
2023-06-22T18:52:44.958Z,13.48
2023-06-22T18:55:52.185Z,14.00
2023-06-22T18:58:58.066Z,15.00
2023-06-22T19:02:03.646Z,15.23
2023-06-22T19:05:12.386Z,16.45
2023-06-22T19:08:15.224Z,21.27
2023-06-22T19:11:17.962Z,25.57
2023-06-22T19:14:24.378Z,24.95
2023-06-22T19:17:27.176Z,22.65
2023-06-22T19:20:35.393Z,22.92
2023-06-22T19:23:42.157Z,16.13
2023-06-22T19:26:52.351Z,22.13
2023-06-22T19:29:57.035Z,22.23
2023-06-22T19:33:00.869Z,17.50
2023-06-22T19:36:04.402Z,18.02
2023-06-22T19:39:07.144Z,18.92
2023-06-22T19:42:10.563Z,19.67
2023-06-22T19:45:18.457Z,21.45
2023-06-22T19:48:26.002Z,17.05
2023-06-22T19:51:37.620Z,19.13
2023-06-22T19:54:41.789Z,25.08
2023-06-22T19:57:47.434Z,21.83
2023-06-22T20:00:56.252Z,19.23
2023-06-22T20:03:59.083Z,24.00
2023-06-22T20:07:06.587Z,24.00
2023-06-22T20:10:20.737Z,21.42
2023-06-22T20:13:23.474Z,22.50
2023-06-22T20:16:30.673Z,17.42
2023-06-22T20:19:43.739Z,26.65
2023-06-22T20:22:47.607Z,21.38
2023-06-22T20:25:53.173Z,28.10
2023-06-22T20:28:56.115Z,28.33
2023-06-22T20:32:10.153Z,23.00
2023-06-22T20:35:13.001Z,28.17
2023-06-22T20:38:16.370Z,26.60
2023-06-22T20:41:19.215Z,123.63
2023-06-22T20:44:22.845Z,53.53
2023-06-22T20:47:25.685Z,42.83
2023-06-22T20:50:32.379Z,39.17
2023-06-22T20:53:35.152Z,34.25
2023-06-22T20:56:37.931Z,30.75
2023-06-22T20:59:40.782Z,26.20
2023-06-22T21:02:45.260Z,29.70
2023-06-22T21:05:48.160Z,32.13
2023-06-22T21:08:50.958Z,23.13
2023-06-22T21:11:54.351Z,22.38
2023-06-22T21:14:57.705Z,19.80
2023-06-22T21:18:00.483Z,21.75
2023-06-22T21:21:03.349Z,21.40
2023-06-22T21:24:06.438Z,18.80
2023-06-22T21:27:09.300Z,23.42
2023-06-22T21:30:14.350Z,19.73
2023-06-22T21:33:17.060Z,25.85
2023-06-22T21:36:19.892Z,26.17
2023-06-22T21:39:22.723Z,18.10
2023-06-22T21:42:28.126Z,17.38
2023-06-22T21:45:31.070Z,20.17
2023-06-22T21:48:33.962Z,19.42
2023-06-22T21:51:36.813Z,29.08
2023-06-22T21:54:39.746Z,24.95
2023-06-22T21:57:42.415Z,28.63
2023-06-22T22:00:45.081Z,27.70
2023-06-22T22:03:47.873Z,22.75
2023-06-22T22:06:52.006Z,24.38
2023-06-22T22:09:55.050Z,26.92
2023-06-22T22:12:57.885Z,27.33
2023-06-22T22:16:00.954Z,25.83
2023-06-22T22:19:03.881Z,23.15
2023-06-22T22:22:07.033Z,24.88
2023-06-22T22:25:09.875Z,24.13
2023-06-22T22:28:12.548Z,33.85
2023-06-22T22:31:16.099Z,26.10
2023-06-22T22:34:18.815Z,25.77
2023-06-22T22:37:21.700Z,27.38
2023-06-22T22:40:24.406Z,23.83
2023-06-22T22:43:27.125Z,28.88
2023-06-22T22:46:58.880Z,29.57
2023-06-22T22:50:01.942Z,23.65
2023-06-22T22:53:05.391Z,27.92
2023-06-22T22:56:08.288Z,29.65
2023-06-22T22:59:11.007Z,31.38
2023-06-22T23:02:13.721Z,26.80
2023-06-22T23:05:16.550Z,29.33
2023-06-22T23:08:19.373Z,25.42
2023-06-22T23:11:22.145Z,27.10
2023-06-22T23:14:24.966Z,30.05
2023-06-22T23:17:28.007Z,27.20
2023-06-22T23:20:30.831Z,29.08
2023-06-22T23:23:33.807Z,28.95
2023-06-22T23:26:36.656Z,29.27
2023-06-22T23:29:39.441Z,27.20
2023-06-22T23:32:42.360Z,31.37
2023-06-22T23:35:45.753Z,30.83
2023-06-22T23:38:48.445Z,31.48
2023-06-22T23:41:51.518Z,31.92
2023-06-22T23:44:54.600Z,30.55
2023-06-22T23:47:57.482Z,27.60
2023-06-22T23:51:00.482Z,26.42
2023-06-22T23:54:03.316Z,27.33
2023-06-22T23:57:07.248Z,26.92
